Time;durP1;ratioP1;P1;durP2;ratioP2;P2;SDS_P1;SDS_P2;PMS_P1;PMS_P2;Temp;Humidity;BMP_temperature;BMP_pressure;BME280_temperature;BME280_humidity;BME280_pressure;Samples;Min_cycle;Max_cycle;Signal;HPM_P1;HPM_P2
2022/06/30 00:00:41;;;;;;;4.03;2.17;;;19.90;99.90;;;;;;4936601;29;20270;-60
2022/06/30 00:03:10;;;;;;;2.57;1.97;;;19.90;99.90;;;;;;4932377;29;20561;-59
2022/06/30 00:05:38;;;;;;;2.47;2.03;;;19.90;99.90;;;;;;4935966;29;20237;-60
2022/06/30 00:08:07;;;;;;;3.23;2.00;;;19.90;99.90;;;;;;4934855;29;20734;-57
2022/06/30 00:10:35;;;;;;;2.00;1.90;;;19.90;99.90;;;;;;4937029;29;20238;-56
2022/06/30 00:13:03;;;;;;;3.43;1.90;;;19.80;99.90;;;;;;4934371;29;20242;-60
2022/06/30 00:15:35;;;;;;;2.10;1.90;;;19.80;99.90;;;;;;4939003;29;20783;-60
2022/06/30 00:18:03;;;;;;;3.53;2.03;;;19.70;99.90;;;;;;4936601;29;20234;-54
2022/06/30 00:20:32;;;;;;;3.17;2.10;;;19.70;99.90;;;;;;4938623;29;20245;-59
2022/06/30 00:23:00;;;;;;;4.50;2.20;;;19.70;99.90;;;;;;4935133;29;20239;-57
2022/06/30 00:25:28;;;;;;;3.07;2.03;;;19.60;99.90;;;;;;4934252;29;20730;-55
2022/06/30 00:27:57;;;;;;;4.00;2.07;;;19.60;99.90;;;;;;4935370;29;20239;-58
2022/06/30 00:30:26;;;;;;;3.60;2.10;;;19.60;99.90;;;;;;4935675;29;20777;-56
2022/06/30 00:32:56;;;;;;;2.97;2.10;;;19.60;99.90;;;;;;4932192;29;20260;-60
2022/06/30 00:35:24;;;;;;;5.00;2.20;;;19.50;99.90;;;;;;4939874;29;20321;-57
2022/06/30 00:37:52;;;;;;;3.20;1.90;;;19.50;99.90;;;;;;4937970;29;20282;-58
2022/06/30 00:40:21;;;;;;;4.67;2.20;;;19.50;99.90;;;;;;4936518;29;20251;-60
2022/06/30 00:42:49;;;;;;;5.00;2.10;;;19.50;99.90;;;;;;4933149;29;20247;-60
2022/06/30 00:45:17;;;;;;;3.77;2.00;;;19.50;99.90;;;;;;4934277;29;20234;-57
2022/06/30 00:47:46;;;;;;;3.03;2.47;;;19.50;99.90;;;;;;4934673;29;20227;-61
2022/06/30 00:50:15;;;;;;;2.87;2.20;;;19.50;99.90;;;;;;4935632;29;20302;-60
2022/06/30 00:52:46;;;;;;;3.13;2.10;;;19.50;99.90;;;;;;4933685;29;20317;-60
2022/06/30 00:55:16;;;;;;;2.93;1.90;;;19.50;99.90;;;;;;4935796;29;20636;-60
2022/06/30 00:57:45;;;;;;;2.83;2.10;;;19.50;99.90;;;;;;4936091;29;20227;-60
2022/06/30 01:00:14;;;;;;;4.60;2.10;;;19.50;99.90;;;;;;4936366;29;20270;-60
2022/06/30 01:02:43;;;;;;;2.93;1.90;;;19.40;99.90;;;;;;4932054;29;20266;-60
2022/06/30 01:05:12;;;;;;;2.33;2.10;;;19.40;99.90;;;;;;4936694;29;20640;-59
2022/06/30 01:07:43;;;;;;;2.17;1.70;;;19.40;99.90;;;;;;4933602;29;20318;-55
2022/06/30 01:12:57;;;;;;;2.83;2.03;;;19.30;99.90;;;;;;4931006;29;20686;-55
2022/06/30 01:15:25;;;;;;;2.43;2.10;;;19.30;99.90;;;;;;4934926;29;20690;-60
2022/06/30 01:17:54;;;;;;;2.97;1.90;;;19.30;99.90;;;;;;4934872;29;20249;-56
2022/06/30 01:20:27;;;;;;;3.17;2.13;;;19.20;99.90;;;;;;4934145;29;20274;-60
2022/06/30 01:22:57;;;;;;;2.33;2.00;;;19.20;99.90;;;;;;4929639;29;20237;-60
2022/06/30 01:25:25;;;;;;;2.17;1.97;;;19.10;99.90;;;;;;4936056;29;20312;-61
2022/06/30 01:27:54;;;;;;;2.30;2.10;;;19.10;99.90;;;;;;4935677;29;20238;-60
2022/06/30 01:30:24;;;;;;;2.70;2.27;;;19.10;99.90;;;;;;4933868;29;20239;-59
2022/06/30 01:32:53;;;;;;;3.37;2.10;;;19.00;99.90;;;;;;4928908;29;20238;-59
2022/06/30 01:35:21;;;;;;;3.60;2.40;;;19.00;99.90;;;;;;4935440;29;20678;-60
2022/06/30 01:37:51;;;;;;;5.80;2.30;;;19.00;99.90;;;;;;4934655;29;20863;-56
2022/06/30 01:40:22;;;;;;;3.50;2.30;;;18.90;99.90;;;;;;4935570;29;20305;-56
2022/06/30 01:42:51;;;;;;;2.60;2.20;;;18.80;99.90;;;;;;4931952;29;20263;-60
2022/06/30 01:45:20;;;;;;;3.90;2.43;;;18.80;99.90;;;;;;4934610;29;20703;-58
2022/06/30 01:47:50;;;;;;;3.10;2.20;;;18.80;99.90;;;;;;4936933;29;20231;-60
2022/06/30 01:50:20;;;;;;;3.80;2.40;;;18.80;99.90;;;;;;4935423;29;20394;-61
2022/06/30 01:52:48;;;;;;;2.97;2.50;;;18.70;99.90;;;;;;4931816;29;20253;-55
2022/06/30 01:55:17;;;;;;;3.13;2.20;;;18.70;99.90;;;;;;4936427;29;20281;-61
2022/06/30 01:57:46;;;;;;;7.80;3.23;;;18.60;99.90;;;;;;4935098;29;20848;-56
2022/06/30 02:00:17;;;;;;;3.67;2.60;;;18.60;99.90;;;;;;4933637;29;20240;-60
2022/06/30 02:02:45;;;;;;;3.90;2.47;;;18.50;99.90;;;;;;4929224;29;20949;-56
2022/06/30 02:05:14;;;;;;;2.40;2.20;;;18.50;99.90;;;;;;4935345;29;20244;-60
2022/06/30 02:07:42;;;;;;;2.73;2.33;;;18.40;99.90;;;;;;4934476;29;20222;-60
2022/06/30 02:10:14;;;;;;;3.70;2.50;;;18.40;99.90;;;;;;4933536;29;20657;-60
2022/06/30 02:12:46;;;;;;;2.63;2.27;;;18.40;99.90;;;;;;4929437;29;20240;-59
2022/06/30 02:15:18;;;;;;;5.10;2.40;;;18.40;99.90;;;;;;4935844;29;20804;-60
2022/06/30 02:17:48;;;;;;;4.00;2.50;;;18.30;99.90;;;;;;4935354;29;20236;-61
2022/06/30 02:20:21;;;;;;;3.23;2.30;;;18.30;99.90;;;;;;4934480;29;20244;-56
2022/06/30 02:22:52;;;;;;;2.50;2.30;;;18.30;99.90;;;;;;4930799;29;20661;-54
2022/06/30 02:25:21;;;;;;;4.80;2.60;;;18.30;99.90;;;;;;4935441;29;20237;-54
2022/06/30 02:27:49;;;;;;;4.13;2.37;;;18.30;99.90;;;;;;4935020;29;20715;-60
2022/06/30 02:30:19;;;;;;;2.93;2.37;;;18.30;99.90;;;;;;4932916;29;20250;-60
2022/06/30 02:32:48;;;;;;;3.53;2.33;;;18.30;99.90;;;;;;4931805;29;20243;-55
2022/06/30 02:35:17;;;;;;;4.23;2.47;;;18.30;99.90;;;;;;4938915;29;20826;-55
2022/06/30 02:37:45;;;;;;;2.40;2.20;;;18.30;99.90;;;;;;4936436;29;20244;-61
2022/06/30 02:40:13;;;;;;;4.10;2.20;;;18.20;99.90;;;;;;4939138;29;20244;-60
2022/06/30 02:42:42;;;;;;;6.67;3.00;;;18.20;99.90;;;;;;4914693;29;20261;-54
2022/06/30 02:45:11;;;;;;;2.87;2.57;;;18.20;99.90;;;;;;4919784;29;20728;-56
2022/06/30 02:47:41;;;;;;;4.47;2.60;;;18.20;99.90;;;;;;4919958;29;20238;-60
2022/06/30 02:50:12;;;;;;;2.60;2.40;;;18.10;99.90;;;;;;4917693;29;20245;-57
2022/06/30 02:52:42;;;;;;;3.10;2.77;;;18.10;99.90;;;;;;4915573;29;20231;-55
2022/06/30 02:55:10;;;;;;;3.27;2.97;;;18.20;99.90;;;;;;4918398;29;20243;-57
2022/06/30 02:57:39;;;;;;;3.50;2.27;;;18.20;99.90;;;;;;4919419;29;20750;-60
2022/06/30 03:00:10;;;;;;;3.30;2.50;;;18.20;99.90;;;;;;4920408;29;20236;-59
2022/06/30 03:02:41;;;;;;;4.50;2.80;;;18.20;99.90;;;;;;4915356;29;20247;-53
2022/06/30 03:05:10;;;;;;;3.17;2.80;;;18.10;99.90;;;;;;4919977;29;20247;-58
2022/06/30 03:07:38;;;;;;;4.30;2.70;;;18.10;99.90;;;;;;4916011;29;20237;-54
2022/06/30 03:10:07;;;;;;;2.80;2.20;;;18.10;99.90;;;;;;4916506;29;20246;-58
2022/06/30 03:12:35;;;;;;;2.90;2.70;;;18.00;99.90;;;;;;4915572;29;20824;-58
2022/06/30 03:15:04;;;;;;;2.53;2.30;;;18.00;99.90;;;;;;4917301;29;20329;-60
2022/06/30 03:17:33;;;;;;;4.17;2.53;;;18.00;99.90;;;;;;4916593;29;20693;-60
2022/06/30 03:20:03;;;;;;;3.83;2.77;;;18.00;99.90;;;;;;4913041;29;20706;-56
2022/06/30 03:22:31;;;;;;;3.37;2.90;;;18.00;99.90;;;;;;4911399;29;20245;-60
2022/06/30 03:24:59;;;;;;;3.93;2.80;;;18.00;99.90;;;;;;4911754;29;20244;-60
2022/06/30 03:27:28;;;;;;;3.30;3.00;;;18.00;99.90;;;;;;4912544;29;20247;-54
2022/06/30 03:29:56;;;;;;;3.57;2.80;;;18.00;99.90;;;;;;4912131;29;20225;-60
2022/06/30 03:32:24;;;;;;;3.73;2.73;;;18.00;99.90;;;;;;4910721;29;20745;-53
2022/06/30 03:34:52;;;;;;;4.03;2.87;;;18.00;99.90;;;;;;4915453;29;20236;-60
2022/06/30 03:37:22;;;;;;;3.93;2.40;;;18.00;99.90;;;;;;4918056;29;20245;-59
2022/06/30 03:39:50;;;;;;;4.87;3.10;;;18.10;99.90;;;;;;4918817;29;20610;-56
2022/06/30 03:42:18;;;;;;;5.27;3.60;;;18.10;99.90;;;;;;4920795;29;20358;-60
2022/06/30 03:44:46;;;;;;;3.20;2.90;;;18.10;99.90;;;;;;4934885;28;20238;-59
2022/06/30 03:47:14;;;;;;;3.90;3.30;;;18.10;99.90;;;;;;4918314;29;20637;-60
2022/06/30 03:49:43;;;;;;;4.20;3.00;;;18.10;99.90;;;;;;4925842;29;20221;-60
2022/06/30 03:52:12;;;;;;;4.07;3.03;;;18.10;99.90;;;;;;4923923;29;20244;-59
2022/06/30 03:54:41;;;;;;;3.60;3.23;;;18.20;99.90;;;;;;4922619;29;20232;-55
2022/06/30 03:57:10;;;;;;;3.70;3.03;;;18.20;99.90;;;;;;4925234;29;20273;-59
2022/06/30 03:59:38;;;;;;;4.33;3.50;;;18.30;99.90;;;;;;4916279;29;20233;-56
2022/06/30 04:02:06;;;;;;;3.20;2.90;;;18.30;99.90;;;;;;4920929;29;20293;-56
2022/06/30 04:04:35;;;;;;;4.87;3.00;;;18.50;99.90;;;;;;4921692;29;20316;-59
2022/06/30 04:07:03;;;;;;;3.77;3.03;;;18.50;99.90;;;;;;4926064;29;20241;-57
2022/06/30 04:09:32;;;;;;;3.80;3.50;;;18.60;99.90;;;;;;4926176;29;20235;-57
2022/06/30 04:12:01;;;;;;;3.50;3.17;;;18.70;99.90;;;;;;4925986;29;20226;-58
2022/06/30 04:14:29;;;;;;;3.87;3.20;;;18.80;99.90;;;;;;4913282;29;20242;-55
2022/06/30 04:16:57;;;;;;;4.57;3.67;;;18.80;99.90;;;;;;4914078;29;20229;-59
2022/06/30 04:19:26;;;;;;;5.73;3.03;;;18.80;99.90;;;;;;4927560;29;20232;-60
2022/06/30 04:21:54;;;;;;;4.87;4.00;;;18.80;99.90;;;;;;4928740;29;20238;-59
2022/06/30 04:24:22;;;;;;;5.60;3.70;;;18.80;99.90;;;;;;4914703;29;20241;-60
2022/06/30 04:26:51;;;;;;;3.97;3.50;;;18.80;99.90;;;;;;4915853;29;20598;-60
2022/06/30 04:29:20;;;;;;;4.43;3.47;;;18.80;99.90;;;;;;4919594;29;20265;-61
2022/06/30 04:34:34;;;;;;;3.97;3.40;;;19.00;99.90;;;;;;4924135;29;20234;-61
2022/06/30 04:37:02;;;;;;;5.53;3.80;;;19.10;99.90;;;;;;4915384;29;20651;-60
2022/06/30 04:39:30;;;;;;;4.53;3.67;;;19.30;99.90;;;;;;4920021;29;20399;-55
2022/06/30 04:41:57;;;;;;;4.20;3.80;;;19.30;99.90;;;;;;4918815;29;20259;-60
2022/06/30 04:44:27;;;;;;;5.47;4.23;;;19.40;99.90;;;;;;4910189;29;20242;-56
2022/06/30 04:46:55;;;;;;;4.47;3.67;;;19.50;99.90;;;;;;4912614;29;20247;-58
2022/06/30 04:49:23;;;;;;;5.83;4.00;;;19.60;99.90;;;;;;4911437;29;20295;-59
2022/06/30 04:51:52;;;;;;;3.00;2.77;;;19.70;99.90;;;;;;4911320;29;21198;-58
2022/06/30 04:54:20;;;;;;;4.73;3.90;;;19.90;99.90;;;;;;4911102;29;20239;-60
2022/06/30 04:56:49;;;;;;;6.13;3.47;;;20.10;99.90;;;;;;4911053;29;20246;-59
2022/06/30 04:59:17;;;;;;;3.60;3.30;;;20.30;99.90;;;;;;4910881;29;20953;-60
2022/06/30 05:01:47;;;;;;;6.53;3.77;;;20.50;99.90;;;;;;4910647;29;20248;-59
2022/06/30 05:04:16;;;;;;;5.13;4.00;;;20.70;99.90;;;;;;4911149;29;20244;-57
2022/06/30 05:06:45;;;;;;;5.10;3.83;;;20.90;99.90;;;;;;4911541;29;20248;-59
2022/06/30 05:09:13;;;;;;;4.97;4.27;;;20.90;99.90;;;;;;4910990;29;20235;-60
2022/06/30 05:11:41;;;;;;;5.67;4.20;;;21.00;99.90;;;;;;4910792;29;20266;-59
2022/06/30 05:14:09;;;;;;;5.60;4.40;;;21.00;99.90;;;;;;4910063;29;20242;-60
2022/06/30 05:16:37;;;;;;;5.30;3.70;;;21.00;99.90;;;;;;4910861;29;20227;-59
2022/06/30 05:19:07;;;;;;;6.17;4.10;;;21.10;99.90;;;;;;4893281;29;20241;-59
2022/06/30 05:21:35;;;;;;;4.70;4.00;;;21.20;99.90;;;;;;4913376;29;21472;-60
2022/06/30 05:26:49;;;;;;;4.20;3.63;;;21.40;99.90;;;;;;4898691;29;20255;-56
2022/06/30 05:29:17;;;;;;;7.30;3.73;;;21.40;99.90;;;;;;4914921;29;20328;-59
2022/06/30 05:31:46;;;;;;;7.80;3.70;;;21.50;99.90;;;;;;4917929;29;20425;-61
2022/06/30 05:34:15;;;;;;;8.33;3.83;;;21.50;99.90;;;;;;4915208;29;20240;-57
2022/06/30 05:36:44;;;;;;;4.77;3.73;;;21.50;99.90;;;;;;4918460;29;20262;-58
2022/06/30 05:39:12;;;;;;;4.33;3.33;;;21.70;99.90;;;;;;4914233;29;20231;-60
2022/06/30 05:41:41;;;;;;;4.23;3.37;;;21.80;99.90;;;;;;4920894;29;20250;-60
2022/06/30 05:44:09;;;;;;;6.27;3.53;;;21.90;99.90;;;;;;4931491;29;20243;-59
2022/06/30 05:46:37;;;;;;;6.27;3.77;;;22.00;99.90;;;;;;4936192;29;20242;-56
2022/06/30 05:49:06;;;;;;;5.30;3.40;;;22.20;99.90;;;;;;4935762;29;20243;-56
2022/06/30 05:51:36;;;;;;;5.87;4.20;;;22.20;99.90;;;;;;4933574;29;20255;-57
2022/06/30 05:54:04;;;;;;;3.73;3.23;;;22.30;99.90;;;;;;4930246;29;20238;-58
2022/06/30 05:56:33;;;;;;;5.30;3.63;;;22.50;99.90;;;;;;4931344;29;20235;-57
2022/06/30 05:59:01;;;;;;;4.70;3.40;;;22.60;99.90;;;;;;4928818;29;20571;-60
2022/06/30 06:01:29;;;;;;;4.80;3.13;;;22.70;99.90;;;;;;4911387;29;20251;-60
2022/06/30 06:03:57;;;;;;;4.43;3.33;;;22.90;99.90;;;;;;4928841;29;20243;-57
2022/06/30 06:06:25;;;;;;;3.57;3.27;;;22.90;99.90;;;;;;4928962;29;20251;-57
2022/06/30 06:08:55;;;;;;;5.07;3.47;;;23.00;99.90;;;;;;4929166;29;20255;-61
2022/06/30 06:11:23;;;;;;;3.80;3.37;;;23.10;99.90;;;;;;4928747;29;20232;-60
2022/06/30 06:13:51;;;;;;;4.40;3.63;;;23.10;99.90;;;;;;4930550;29;20235;-60
2022/06/30 06:16:19;;;;;;;5.53;3.60;;;23.20;99.90;;;;;;4935418;29;20310;-60
2022/06/30 06:18:48;;;;;;;4.13;3.27;;;23.30;99.90;;;;;;4933910;29;20252;-55
2022/06/30 06:21:16;;;;;;;5.87;3.27;;;23.40;99.90;;;;;;4934983;29;21416;-56
2022/06/30 06:23:47;;;;;;;5.53;3.30;;;23.50;99.90;;;;;;4929457;29;20746;-59
2022/06/30 06:26:17;;;;;;;6.40;3.87;;;23.60;99.90;;;;;;4930289;29;20287;-57
2022/06/30 06:31:31;;;;;;;6.90;3.63;;;23.80;99.90;;;;;;4932806;29;20332;-60
2022/06/30 06:34:00;;;;;;;4.30;3.30;;;23.70;99.90;;;;;;4932322;29;20927;-55
2022/06/30 06:36:28;;;;;;;4.27;3.37;;;23.90;99.90;;;;;;4933999;29;20241;-55
2022/06/30 06:38:57;;;;;;;5.33;3.23;;;24.30;99.90;;;;;;4932110;29;20236;-57
2022/06/30 06:41:26;;;;;;;4.00;3.33;;;24.60;99.90;;;;;;4935009;29;20284;-58
2022/06/30 06:43:54;;;;;;;4.20;2.80;;;24.70;99.90;;;;;;4933798;29;20333;-58
2022/06/30 06:46:26;;;;;;;5.80;2.93;;;24.90;99.90;;;;;;4933196;29;20323;-61
2022/06/30 06:48:56;;;;;;;4.00;2.40;;;25.10;99.90;;;;;;4933738;29;20638;-59
2022/06/30 06:51:25;;;;;;;5.87;3.37;;;25.50;99.90;;;;;;4934559;29;20227;-56
2022/06/30 06:53:53;;;;;;;3.57;2.70;;;25.60;99.90;;;;;;4933377;29;20251;-60
2022/06/30 06:56:21;;;;;;;4.23;3.00;;;25.90;99.90;;;;;;4929573;29;20834;-60
2022/06/30 06:58:57;;;;;;;5.40;3.10;;;26.20;99.90;;;;;;4928000;29;20236;-59
2022/06/30 07:01:26;;;;;;;3.90;2.80;;;26.20;99.90;;;;;;4930224;29;20258;-57
2022/06/30 07:03:54;;;;;;;4.13;3.10;;;26.00;99.90;;;;;;4927789;29;20246;-61
2022/06/30 07:06:22;;;;;;;5.20;3.10;;;26.30;99.90;;;;;;4928373;29;20250;-61
2022/06/30 07:08:50;;;;;;;5.27;3.27;;;26.40;99.90;;;;;;4928264;29;20615;-60
2022/06/30 07:11:19;;;;;;;7.33;3.10;;;26.30;99.90;;;;;;4927582;29;20230;-57
2022/06/30 07:13:47;;;;;;;4.50;3.03;;;26.10;99.90;;;;;;4927692;29;20239;-60
2022/06/30 07:16:17;;;;;;;4.83;2.93;;;26.10;99.90;;;;;;4927570;29;20231;-56
2022/06/30 07:18:45;;;;;;;4.57;3.20;;;26.00;99.90;;;;;;4930139;29;20237;-58
2022/06/30 07:21:14;;;;;;;6.37;3.10;;;26.20;99.90;;;;;;4932971;29;20234;-60
2022/06/30 07:23:42;;;;;;;5.00;2.77;;;26.20;99.90;;;;;;4931966;29;20767;-61
2022/06/30 07:26:12;;;;;;;4.77;3.03;;;26.20;99.90;;;;;;4932900;29;20271;-58
2022/06/30 07:28:41;;;;;;;3.10;2.80;;;26.40;99.90;;;;;;4935657;29;20328;-58
2022/06/30 07:31:23;;;;;;;3.77;2.70;;;26.70;99.90;;;;;;4935494;29;20245;-60
2022/06/30 07:33:52;;;;;;;5.03;2.63;;;26.90;99.90;;;;;;4937095;29;20230;-61
2022/06/30 07:36:21;;;;;;;3.67;2.80;;;27.10;99.90;;;;;;4936184;29;20222;-60
2022/06/30 07:38:50;;;;;;;5.87;2.93;;;27.20;99.90;;;;;;4939786;29;20268;-60
2022/06/30 07:41:18;;;;;;;7.57;3.07;;;27.40;99.90;;;;;;4935516;29;20318;-60
2022/06/30 07:43:47;;;;;;;4.40;2.43;;;27.50;99.90;;;;;;4935162;29;20230;-58
2022/06/30 07:46:16;;;;;;;3.50;2.80;;;27.70;99.90;;;;;;4936832;29;20325;-58
2022/06/30 07:48:46;;;;;;;3.47;2.60;;;27.80;99.90;;;;;;4937719;29;20233;-60
2022/06/30 07:51:15;;;;;;;4.97;2.83;;;28.10;99.90;;;;;;4937633;29;20232;-60
2022/06/30 07:53:44;;;;;;;5.23;2.60;;;28.30;99.90;;;;;;4925137;29;20231;-60
2022/06/30 07:56:12;;;;;;;5.60;3.10;;;28.30;99.90;;;;;;4926423;29;20253;-60
2022/06/30 07:58:40;;;;;;;4.33;2.57;;;28.50;99.90;;;;;;4929582;29;20242;-56
2022/06/30 08:01:08;;;;;;;4.63;2.60;;;28.60;99.90;;;;;;4926334;29;20247;-58
2022/06/30 08:03:42;;;;;;;4.17;2.90;;;29.00;99.90;;;;;;4923800;29;20588;-59
2022/06/30 08:06:12;;;;;;;2.97;2.47;;;29.60;99.90;;;;;;4926074;29;20313;-54
2022/06/30 08:08:41;;;;;;;6.33;2.80;;;29.40;99.90;;;;;;4923277;29;20288;-59
2022/06/30 08:11:10;;;;;;;4.93;2.70;;;29.40;99.90;;;;;;4925927;29;20245;-59
2022/06/30 08:13:38;;;;;;;3.60;2.60;;;29.40;99.90;;;;;;4924134;29;20227;-59
2022/06/30 08:16:07;;;;;;;4.23;2.60;;;29.50;99.90;;;;;;4926776;29;20239;-55
2022/06/30 08:18:35;;;;;;;3.57;2.70;;;29.60;99.90;;;;;;4929262;29;20507;-60
2022/06/30 08:21:04;;;;;;;4.77;2.40;;;29.60;99.90;;;;;;4926851;29;20760;-57
2022/06/30 08:23:33;;;;;;;2.97;1.97;;;29.70;99.90;;;;;;4924791;29;20587;-54
2022/06/30 08:26:01;;;;;;;4.37;2.43;;;29.90;99.90;;;;;;4927359;29;20246;-59
2022/06/30 08:28:31;;;;;;;5.60;2.77;;;29.90;99.90;;;;;;4927129;29;20253;-55
2022/06/30 08:31:00;;;;;;;5.97;2.60;;;29.90;99.90;;;;;;4924893;28;20331;-58
2022/06/30 08:33:28;;;;;;;3.03;2.70;;;30.00;99.90;;;;;;4925845;29;21211;-56
2022/06/30 08:35:57;;;;;;;3.63;2.27;;;30.00;99.90;;;;;;4938567;29;20323;-60
2022/06/30 08:38:28;;;;;;;2.67;2.20;;;29.90;99.90;;;;;;4939800;29;20600;-56
2022/06/30 08:43:44;;;;;;;5.73;2.60;;;29.70;99.90;;;;;;4937962;29;20798;-60
2022/06/30 08:46:13;;;;;;;3.23;2.40;;;29.80;99.90;;;;;;4936797;29;20296;-60
2022/06/30 08:48:42;;;;;;;4.30;2.27;;;30.00;99.90;;;;;;4938750;29;20235;-60
2022/06/30 08:51:15;;;;;;;3.93;2.33;;;29.80;99.90;;;;;;4938984;29;20319;-58
2022/06/30 08:53:48;;;;;;;3.10;2.27;;;29.60;99.90;;;;;;4929515;29;20240;-60
2022/06/30 08:56:18;;;;;;;3.07;2.40;;;29.60;99.90;;;;;;4930714;29;20224;-58
2022/06/30 08:58:48;;;;;;;3.13;2.70;;;29.50;99.90;;;;;;4929802;29;20235;-57
2022/06/30 09:01:17;;;;;;;5.50;2.70;;;29.60;99.90;;;;;;4932708;29;20750;-57
2022/06/30 09:03:46;;;;;;;5.20;2.60;;;29.60;99.90;;;;;;4937697;29;20234;-59
2022/06/30 09:06:15;;;;;;;3.50;2.20;;;30.00;99.90;;;;;;4937095;29;20707;-60
2022/06/30 09:09:03;;;;;;;2.87;2.40;;;30.30;99.90;;;;;;4938952;29;20699;-57
2022/06/30 09:11:51;;;;;;;2.97;2.60;;;30.50;99.90;;;;;;4934081;29;20239;-60
2022/06/30 09:14:38;;;;;;;5.50;2.27;;;30.10;99.90;;;;;;4934260;29;20232;-59
2022/06/30 09:17:08;;;;;;;4.57;2.70;;;30.10;99.90;;;;;;4939334;29;20239;-59
2022/06/30 09:19:50;;;;;;;6.37;2.53;;;30.30;99.90;;;;;;4930720;29;20231;-60
2022/06/30 09:22:19;;;;;;;2.97;2.27;;;30.10;99.90;;;;;;4925424;29;20248;-59
2022/06/30 09:24:53;;;;;;;5.13;2.60;;;30.10;99.90;;;;;;4926863;29;20243;-54
2022/06/30 09:27:24;;;;;;;5.97;2.80;;;30.30;99.90;;;;;;4926061;29;20265;-60
2022/06/30 09:29:55;;;;;;;3.37;2.60;;;30.20;99.90;;;;;;4924889;29;20242;-60
2022/06/30 09:32:48;;;;;;;3.43;2.40;;;30.00;99.90;;;;;;4925060;29;20242;-59
2022/06/30 09:35:17;;;;;;;3.80;2.70;;;30.00;99.90;;;;;;4926729;29;20251;-57
2022/06/30 09:37:46;;;;;;;4.87;2.50;;;30.20;99.90;;;;;;4923260;29;20231;-59
2022/06/30 09:40:14;;;;;;;4.47;2.57;;;30.40;99.90;;;;;;4924967;29;20234;-60
2022/06/30 09:42:45;;;;;;;4.30;2.60;;;30.80;99.90;;;;;;4920720;28;20238;-60
2022/06/30 09:45:38;;;;;;;4.47;2.80;;;30.80;99.90;;;;;;4920077;29;20251;-59
2022/06/30 09:48:07;;;;;;;5.60;2.47;;;30.30;99.90;;;;;;4918990;29;20263;-60
2022/06/30 09:50:37;;;;;;;4.20;2.80;;;30.50;99.90;;;;;;4923276;29;20246;-59
2022/06/30 09:53:11;;;;;;;4.10;2.67;;;30.80;99.90;;;;;;4924556;29;20331;-59
2022/06/30 09:55:43;;;;;;;4.77;2.50;;;30.90;99.90;;;;;;4926335;29;20238;-58
2022/06/30 09:58:15;;;;;;;3.67;2.43;;;31.10;99.90;;;;;;4924102;29;21033;-57
2022/06/30 10:00:46;;;;;;;3.30;2.43;;;30.90;99.70;;;;;;4919690;29;20948;-57
2022/06/30 10:03:16;;;;;;;6.93;2.53;;;31.10;99.90;;;;;;4923634;29;21309;-59
2022/06/30 10:05:46;;;;;;;4.07;2.43;;;31.30;99.70;;;;;;4926727;29;20233;-59
2022/06/30 10:08:15;;;;;;;3.37;2.40;;;31.50;99.40;;;;;;4922499;29;20246;-57
2022/06/30 10:10:44;;;;;;;3.53;2.20;;;31.50;99.10;;;;;;4926739;29;20832;-59
2022/06/30 10:13:17;;;;;;;3.03;2.53;;;31.40;99.40;;;;;;4924561;29;20251;-59
2022/06/30 10:15:49;;;;;;;3.53;2.40;;;31.50;98.80;;;;;;4926455;29;20650;-58
2022/06/30 10:18:18;;;;;;;4.33;2.80;;;31.60;98.70;;;;;;4922837;29;20251;-55
2022/06/30 10:20:47;;;;;;;4.27;2.60;;;31.80;98.80;;;;;;4925277;28;20667;-56
2022/06/30 10:23:19;;;;;;;3.67;2.20;;;31.70;98.60;;;;;;4923761;29;20233;-56
2022/06/30 10:25:48;;;;;;;3.57;2.50;;;31.60;98.20;;;;;;4922936;29;20250;-55
2022/06/30 10:28:20;;;;;;;3.90;2.20;;;31.40;97.70;;;;;;4919297;29;20238;-57
2022/06/30 10:30:54;;;;;;;2.70;2.10;;;31.50;97.70;;;;;;4919222;29;20240;-58
2022/06/30 10:33:31;;;;;;;3.87;2.57;;;32.40;98.10;;;;;;4919698;29;20715;-59
2022/06/30 10:36:05;;;;;;;7.03;2.53;;;32.50;97.10;;;;;;4927872;29;20328;-59
2022/06/30 10:38:40;;;;;;;4.03;2.43;;;32.70;97.90;;;;;;4924371;29;20241;-55
2022/06/30 10:41:11;;;;;;;3.27;2.47;;;32.80;96.60;;;;;;4926371;29;20980;-58
2022/06/30 10:44:14;;;;;;;3.03;2.10;;;32.40;97.20;;;;;;4923137;29;20243;-59
2022/06/30 10:47:08;;;;;;;8.63;3.23;;;32.60;96.80;;;;;;4926741;29;20245;-55
2022/06/30 10:49:54;;;;;;;313.80;53.87;;;32.70;96.10;;;;;;4925306;29;20235;-56
2022/06/30 10:52:25;;;;;;;167.40;43.57;;;32.70;96.30;;;;;;4924853;28;20263;-60
2022/06/30 10:55:02;;;;;;;40.37;16.50;;;32.60;96.20;;;;;;4931292;29;20680;-61
2022/06/30 10:58:02;;;;;;;26.30;10.27;;;32.20;96.90;;;;;;4929534;29;20249;-58
2022/06/30 11:00:59;;;;;;;13.97;5.70;;;32.90;96.50;;;;;;4927523;29;21065;-60
2022/06/30 11:03:58;;;;;;;4.77;3.07;;;33.10;96.10;;;;;;4926507;29;20717;-56
2022/06/30 11:07:07;;;;;;;3.20;2.60;;;32.90;95.80;;;;;;4920294;29;20757;-53
2022/06/30 11:10:18;;;;;;;2.73;2.10;;;32.90;95.50;;;;;;4927387;29;20258;-58
2022/06/30 11:12:55;;;;;;;3.93;2.30;;;33.00;95.00;;;;;;4927593;28;20257;-59
2022/06/30 11:15:42;;;;;;;4.10;2.30;;;33.40;95.50;;;;;;4936714;29;20231;-57
2022/06/30 11:18:12;;;;;;;3.20;2.10;;;34.10;95.50;;;;;;4923910;29;20773;-60
2022/06/30 11:20:44;;;;;;;3.30;2.20;;;34.50;94.70;;;;;;4924402;29;20228;-60
2022/06/30 11:23:12;;;;;;;3.10;2.10;;;34.60;93.70;;;;;;4923474;29;20242;-58
2022/06/30 11:28:30;;;;;;;5.30;2.53;;;35.30;93.30;;;;;;4925781;29;20288;-58
2022/06/30 11:30:58;;;;;;;2.30;2.10;;;35.70;92.20;;;;;;4928654;29;20251;-56
2022/06/30 11:33:27;;;;;;;2.70;2.50;;;35.10;91.80;;;;;;4926573;29;20361;-59
2022/06/30 11:36:09;;;;;;;4.50;2.37;;;34.40;93.20;;;;;;4929843;29;20695;-57
2022/06/30 11:38:38;;;;;;;5.27;2.50;;;34.00;93.60;;;;;;4926304;29;20232;-59
2022/06/30 11:43:53;;;;;;;3.00;2.43;;;34.20;92.90;;;;;;4927597;29;20237;-59
2022/06/30 11:46:21;;;;;;;2.67;2.23;;;34.40;93.70;;;;;;4927939;29;20298;-56
2022/06/30 11:48:51;;;;;;;3.93;2.47;;;34.60;93.50;;;;;;4924034;29;20652;-60
2022/06/30 11:51:19;;;;;;;4.33;2.60;;;34.70;93.20;;;;;;4924254;29;20332;-60
2022/06/30 11:53:47;;;;;;;3.23;2.50;;;34.20;92.30;;;;;;4922834;29;20236;-54
2022/06/30 11:56:18;;;;;;;4.27;2.43;;;34.30;93.50;;;;;;4917546;29;20235;-59
2022/06/30 11:58:46;;;;;;;4.00;2.40;;;34.30;93.40;;;;;;4923304;29;20259;-54
2022/06/30 12:01:16;;;;;;;3.43;2.70;;;34.10;93.10;;;;;;4926390;29;20231;-60
2022/06/30 12:03:44;;;;;;;3.37;2.77;;;33.50;93.60;;;;;;4926595;28;20227;-60
2022/06/30 12:06:17;;;;;;;5.07;3.47;;;33.20;94.40;;;;;;4927091;28;20241;-60
2022/06/30 12:08:50;;;;;;;5.50;3.00;;;33.10;95.00;;;;;;4923966;29;20271;-61
2022/06/30 12:11:18;;;;;;;2.80;2.53;;;32.70;94.90;;;;;;4923384;29;20259;-55
2022/06/30 12:13:47;;;;;;;5.30;2.73;;;32.50;95.30;;;;;;4921215;29;20231;-54
2022/06/30 12:16:18;;;;;;;4.80;3.07;;;32.30;95.30;;;;;;4926809;29;21538;-60
2022/06/30 12:18:47;;;;;;;4.00;3.10;;;32.40;95.80;;;;;;4924317;29;20239;-56
2022/06/30 12:21:16;;;;;;;4.23;2.70;;;32.50;96.20;;;;;;4923799;29;20517;-58
2022/06/30 12:23:48;;;;;;;6.40;3.00;;;32.70;96.20;;;;;;4926046;29;20913;-60
2022/06/30 12:26:20;;;;;;;4.17;3.03;;;32.40;95.90;;;;;;4925533;29;20233;-57
2022/06/30 12:28:52;;;;;;;2.97;2.40;;;32.40;95.50;;;;;;4922941;29;20246;-54
2022/06/30 12:31:25;;;;;;;2.90;2.70;;;32.20;96.40;;;;;;4925650;29;20715;-60
2022/06/30 12:33:54;;;;;;;3.17;2.87;;;32.50;96.50;;;;;;4923551;29;20708;-57
2022/06/30 12:36:30;;;;;;;3.33;2.80;;;32.40;96.60;;;;;;4925378;29;20231;-56
2022/06/30 12:38:58;;;;;;;3.83;3.30;;;32.30;96.40;;;;;;4924446;29;21212;-58
2022/06/30 12:41:27;;;;;;;3.33;3.03;;;32.00;96.60;;;;;;4923654;29;20239;-55
2022/06/30 12:43:55;;;;;;;3.33;3.00;;;32.00;96.50;;;;;;4923432;29;21168;-59
2022/06/30 12:46:37;;;;;;;3.53;3.23;;;32.10;97.10;;;;;;4923118;29;20228;-56
2022/06/30 12:49:06;;;;;;;3.57;2.90;;;31.90;96.80;;;;;;4922340;29;20317;-56
2022/06/30 12:51:42;;;;;;;4.60;3.50;;;31.80;97.20;;;;;;4923791;29;20629;-57
2022/06/30 12:54:12;;;;;;;3.87;3.47;;;31.80;97.40;;;;;;4922822;29;20630;-54
2022/06/30 12:56:50;;;;;;;3.87;3.20;;;31.70;97.00;;;;;;4924716;29;20941;-57
2022/06/30 12:59:20;;;;;;;5.57;3.17;;;31.80;98.00;;;;;;4921715;29;20240;-60
2022/06/30 13:01:55;;;;;;;5.60;3.13;;;31.80;97.90;;;;;;4923331;29;20359;-59
2022/06/30 13:04:25;;;;;;;3.87;3.53;;;32.00;98.00;;;;;;4923279;29;20708;-59
2022/06/30 13:06:57;;;;;;;4.33;3.10;;;31.70;97.80;;;;;;4924284;29;20246;-56
2022/06/30 13:09:28;;;;;;;4.77;3.80;;;31.70;97.80;;;;;;4920982;29;20235;-54
2022/06/30 13:11:59;;;;;;;5.40;3.40;;;31.50;97.50;;;;;;4923355;29;20249;-54
2022/06/30 13:14:30;;;;;;;4.13;3.20;;;31.20;97.60;;;;;;4923200;29;20240;-55
2022/06/30 13:17:00;;;;;;;4.37;3.20;;;31.20;98.80;;;;;;4924289;28;20221;-54
2022/06/30 13:19:29;;;;;;;5.30;3.63;;;30.90;99.10;;;;;;4921505;29;20276;-52
2022/06/30 13:21:58;;;;;;;6.53;3.70;;;30.70;98.90;;;;;;4931487;29;20865;-57